Terminal Aerodrome Forecast
Issued by NWS

Home | Current Version | Previous Version | Text Only | Print | Product List | Glossary On
Versions: 1 2 3 4 5 6 7 8 9 10 11 12 13 14 15 16 17 18 19 20 21 22 23 24 25
641
FTUS46 KSGX 230856 AAA
TAFSAN
TAF AMD
KSAN 230856Z 2309/2412 VRB04KT P6SM OVC009
     FM231630 VRB04KT P6SM SCT010
     FM231900 30011KT P6SM SCT010
     FM240200 VRB05KT P6SM BKN010
     FM240500 VRB04KT P6SM OVC007=

USA.gov is the U.S. government's official web portal to all federal, state and local government web resources and services.